Wahoo, NE

9:40 AM CDT on September 23, 2014 (GMT -0500)
Wahoo Municipal | Change Station
CLOSE
Current Station
Airport
Location: Wahoo,
Elevation: 1224 ft
Nearby Weather Stations

Elev 1224 ft 41.24 °N, 96.59 °W | Updated 25 minutes ago

Rain
Rain
59 °F
Feels Like 59 °F
N
5
Wind Variable Wind from SE

Today
High -- | Low -- °F
--% Chance of Precip.
Yesterday
High -- | Low -- °F
Precip. -- in
7:15 AM 7:21 PM
Waning Crescent, 0% visible
Pressure 30.17 in
Visibility 10.0 miles
Clouds Scattered Clouds 6500 ft
Overcast 8000 ft
Dew Point 54 °F
Humidity 86%
Rainfall 0.01 in
Snow Depth Not available.
UV 1 out of 12
Pollen 4.00 out of 12
Air Quality Not available.
Flu Activity Not available.
METAR KAHQ 231415Z AUTO 14004KT 10SM RA SCT065 OVC080 15/13 A3017 RMK AO2 T01490125

More Conditions Fewer Conditions

Pressure 30.17 in
Visibility 10.0 miles
Clouds Scattered Clouds 6500 ft
Overcast 8000 ft
Dew Point 54 °F
Humidity 86%
Rainfall 0.01 in
Snow Depth Not available.
UV 1 out of 12
Pollen 4.00 out of 12
Air Quality Not available.
Flu Activity Not available.
METAR KAHQ 231415Z AUTO 14004KT 10SM RA SCT065 OVC080 15/13 A3017 RMK AO2 T01490125

More Conditions Fewer Conditions

10-Day Weather Forecast

Almanac

Astronomy

Sep. 23, 2014 Rise Set
Actual Time 7:15 AM CDT 7:21 PM CDT
Civil Twilight 6:47 AM CDT 7:49 PM CDT
Nautical Twilight 6:15 AM CDT 8:21 PM CDT
Astronomical Twilight 5:42 AM CDT 8:54 PM CDT
Moon 6:40 AM CDT 7:01 PM CDT
Length of Visible Light 13h 01m
Length of Day
12h 06m
Tomorrow will be 2m 43s shorter.
Waning Crescent, 0% of the Moon is Illuminated
Today
Waning Crescent
Sep 24
New
Oct 1
First Quarter
Oct 8
Full
Oct 15
Last Quarter

Today's Extremes

State Highs State Lows

Community

WunderPhotos

Upload Photos

1,755,711 photos uploaded!

Nearby

Snow Depth

Station Depth Elevation
No new snow has been reported.

Earthquake Activity

City Distance Mag. Time & Date
No recent earthquake activity has been reported nearby.
Minimum magnitude displayed is 2.5.

Coastal Water Temperatures

Place Temperature
No Stations Reporting

Nearby Weather Stations